SLCO/CIJ METAR and TAF weather

Enter ICAO airport designator
Station Type Date Time Source
SLCO METAR 2019/10/23 00:00 UTC NOAA

SLCO 230000Z 09003KT 9999 FEW017 FEW020CB BKN080 BKN200 26/24 Q1008


Station Type Date Time Source
SLCO Decoded METAR 2019/10/23 00:00 UTC NOAA

Cobija, Bolivia (SLCO) 11-02S 068-47W 260M
Oct 22, 2019 - 08:00 PM EDT / 2019.10.23 0000 UTC
Wind: from the E (090 degrees) at 3 MPH (3 KT):0
Visibility: greater than 7 mile(s):0
Sky conditions: mostly cloudy
Weather: Cumulonimbus clouds observed
Temperature: 78 F (26 C)
Dew Point: 75 F (24 C)
Relative Humidity: 88%
Pressure (altimeter): 29.77 in. Hg (1008 hPa)
ob: SLCO 230000Z 09003KT 9999 FEW017 FEW020CB BKN080 BKN200 26/24 Q1008
cycle: 0

Station Type Date Time Source
SLCO TAF 2019/10/22 18:25 UTC NOAA

TAF SLCO 221600Z 2218/2318 32009KT 9999 SCT020 BKN080 TX33/2220Z TN21 /2310Z
TEMPO 2219/2222 7000 SHRA FEW023CB
BECMG 2223/2303 00000KT BKN012 BKN070

Example: see airport list